sensor_id;sensor_type;location;lat;lon;timestamp;pressure;altitude;pressure_sealevel;temperature;humidity
14041;BME280;7095;51.388;6.196;2023-04-21T00:00:12;108478.84;;;-145.32;100.00
14041;BME280;7095;51.388;6.196;2023-04-21T00:02:41;108478.84;;;-145.32;100.00
14041;BME280;7095;51.388;6.196;2023-04-21T00:05:11;108737.41;;;-145.32;100.00
14041;BME280;7095;51.388;6.196;2023-04-21T00:07:40;109254.63;;;-145.32;100.00
14041;BME280;7095;51.388;6.196;2023-04-21T00:10:10;109254.63;;;-145.32;100.00
14041;BME280;7095;51.388;6.196;2023-04-21T00:12:39;110030.59;;;-145.32;100.00
14041;BME280;7095;51.388;6.196;2023-04-21T00:15:08;110289.28;;;-145.32;100.00
14041;BME280;7095;51.388;6.196;2023-04-21T00:17:36;110806.75;;;-145.32;100.00
14041;BME280;7095;51.388;6.196;2023-04-21T00:20:09;110806.75;;;-145.32;100.00
14041;BME280;7095;51.388;6.196;2023-04-21T00:22:40;111065.50;;;-145.32;100.00
14041;BME280;7095;51.388;6.196;2023-04-21T00:25:10;111065.50;;;-145.32;100.00
14041;BME280;7095;51.388;6.196;2023-04-21T00:27:41;110806.75;;;-145.32;100.00
14041;BME280;7095;51.388;6.196;2023-04-21T00:30:10;111324.28;;;-145.32;100.00
14041;BME280;7095;51.388;6.196;2023-04-21T00:32:39;111841.88;;;-145.32;100.00
14041;BME280;7095;51.388;6.196;2023-04-21T00:35:08;112100.69;;;-145.32;100.00
14041;BME280;7095;51.388;6.196;2023-04-21T00:37:40;112359.53;;;-145.32;100.00
14041;BME280;7095;51.388;6.196;2023-04-21T00:40:12;112359.53;;;-145.32;100.00
14041;BME280;7095;51.388;6.196;2023-04-21T00:42:40;112618.41;;;-145.32;100.00
14041;BME280;7095;51.388;6.196;2023-04-21T00:45:09;112359.53;;;-145.32;100.00
14041;BME280;7095;51.388;6.196;2023-04-21T00:47:38;112618.41;;;-145.32;100.00
14041;BME280;7095;51.388;6.196;2023-04-21T00:50:07;112618.41;;;-145.32;100.00
14041;BME280;7095;51.388;6.196;2023-04-21T00:52:40;112618.41;;;-145.32;100.00
14041;BME280;7095;51.388;6.196;2023-04-21T00:55:12;112877.31;;;-145.32;100.00
14041;BME280;7095;51.388;6.196;2023-04-21T00:57:42;112877.31;;;-145.32;100.00
14041;BME280;7095;51.388;6.196;2023-04-21T01:00:11;113136.22;;;-145.32;100.00
14041;BME280;7095;51.388;6.196;2023-04-21T01:02:40;113654.06;;;-145.32;100.00
14041;BME280;7095;51.388;6.196;2023-04-21T01:05:13;113654.06;;;-145.32;100.00
14041;BME280;7095;51.388;6.196;2023-04-21T01:07:46;113913.03;;;-145.32;100.00
14041;BME280;7095;51.388;6.196;2023-04-21T01:10:16;113654.06;;;-145.32;100.00
14041;BME280;7095;51.388;6.196;2023-04-21T01:12:45;113654.06;;;-145.32;100.00
14041;BME280;7095;51.388;6.196;2023-04-21T01:15:15;113654.06;;;-145.32;100.00
14041;BME280;7095;51.388;6.196;2023-04-21T01:17:44;113913.03;;;-145.32;100.00
14041;BME280;7095;51.388;6.196;2023-04-21T01:20:14;114172.03;;;-145.32;100.00
14041;BME280;7095;51.388;6.196;2023-04-21T01:22:44;114172.03;;;-145.32;100.00
14041;BME280;7095;51.388;6.196;2023-04-21T01:25:13;114431.03;;;-145.32;100.00
14041;BME280;7095;51.388;6.196;2023-04-21T01:27:41;114690.03;;;-145.32;100.00
14041;BME280;7095;51.388;6.196;2023-04-21T01:30:10;114690.03;;;-145.32;100.00
14041;BME280;7095;51.388;6.196;2023-04-21T01:32:38;114949.09;;;-145.32;100.00
14041;BME280;7095;51.388;6.196;2023-04-21T01:35:10;114690.03;;;-145.32;100.00
14041;BME280;7095;51.388;6.196;2023-04-21T01:37:38;114690.03;;;-145.32;100.00
14041;BME280;7095;51.388;6.196;2023-04-21T01:40:11;114949.09;;;-145.32;100.00
14041;BME280;7095;51.388;6.196;2023-04-21T01:42:41;114949.09;;;-145.32;100.00
14041;BME280;7095;51.388;6.196;2023-04-21T01:45:11;114949.09;;;-145.32;100.00
14041;BME280;7095;51.388;6.196;2023-04-21T01:47:40;114949.09;;;-145.32;100.00
14041;BME280;7095;51.388;6.196;2023-04-21T01:50:09;115208.13;;;-145.32;100.00
14041;BME280;7095;51.388;6.196;2023-04-21T01:52:37;114949.09;;;-145.32;100.00
14041;BME280;7095;51.388;6.196;2023-04-21T01:55:06;115208.13;;;-145.32;100.00
14041;BME280;7095;51.388;6.196;2023-04-21T01:57:36;114949.09;;;-145.32;100.00
14041;BME280;7095;51.388;6.196;2023-04-21T02:00:06;114949.09;;;-145.32;100.00
14041;BME280;7095;51.388;6.196;2023-04-21T02:02:43;114949.09;;;-145.32;100.00
14041;BME280;7095;51.388;6.196;2023-04-21T02:05:12;114949.09;;;-145.32;100.00
14041;BME280;7095;51.388;6.196;2023-04-21T02:07:40;114949.09;;;-145.32;100.00
14041;BME280;7095;51.388;6.196;2023-04-21T02:10:09;114949.09;;;-145.32;100.00
14041;BME280;7095;51.388;6.196;2023-04-21T02:12:43;114949.09;;;-145.32;100.00
14041;BME280;7095;51.388;6.196;2023-04-21T02:15:11;114949.09;;;-145.32;100.00
14041;BME280;7095;51.388;6.196;2023-04-21T02:17:40;114949.09;;;-145.32;100.00
14041;BME280;7095;51.388;6.196;2023-04-21T02:20:11;115208.13;;;-145.32;100.00
14041;BME280;7095;51.388;6.196;2023-04-21T02:22:40;115208.13;;;-145.32;100.00
14041;BME280;7095;51.388;6.196;2023-04-21T02:25:08;115208.13;;;-145.32;100.00
14041;BME280;7095;51.388;6.196;2023-04-21T02:27:38;115208.13;;;-145.32;100.00
14041;BME280;7095;51.388;6.196;2023-04-21T02:30:08;115208.13;;;-145.32;100.00
14041;BME280;7095;51.388;6.196;2023-04-21T02:32:37;114949.09;;;-145.32;100.00
14041;BME280;7095;51.388;6.196;2023-04-21T02:35:06;114949.09;;;-145.32;100.00
14041;BME280;7095;51.388;6.196;2023-04-21T02:37:35;115208.13;;;-145.32;100.00
14041;BME280;7095;51.388;6.196;2023-04-21T02:40:04;115208.13;;;-145.32;100.00
14041;BME280;7095;51.388;6.196;2023-04-21T02:42:33;115208.13;;;-145.32;100.00
14041;BME280;7095;51.388;6.196;2023-04-21T02:45:02;115208.13;;;-145.32;100.00
14041;BME280;7095;51.388;6.196;2023-04-21T02:47:32;115208.13;;;-145.32;100.00
14041;BME280;7095;51.388;6.196;2023-04-21T02:50:00;115208.13;;;-145.32;100.00
14041;BME280;7095;51.388;6.196;2023-04-21T02:52:34;114949.09;;;-145.32;100.00
14041;BME280;7095;51.388;6.196;2023-04-21T02:55:04;114949.09;;;-145.32;100.00
14041;BME280;7095;51.388;6.196;2023-04-21T02:57:32;114949.09;;;-145.32;100.00
14041;BME280;7095;51.388;6.196;2023-04-21T03:00:00;114949.09;;;-145.32;100.00
14041;BME280;7095;51.388;6.196;2023-04-21T03:02:32;114690.03;;;-145.32;100.00
14041;BME280;7095;51.388;6.196;2023-04-21T03:05:00;114690.03;;;-145.32;100.00
14041;BME280;7095;51.388;6.196;2023-04-21T03:07:33;114690.03;;;-145.32;100.00
14041;BME280;7095;51.388;6.196;2023-04-21T03:10:05;114690.03;;;-145.32;100.00
14041;BME280;7095;51.388;6.196;2023-04-21T03:12:33;114690.03;;;-145.32;100.00
14041;BME280;7095;51.388;6.196;2023-04-21T03:15:03;114431.03;;;-145.32;100.00
14041;BME280;7095;51.388;6.196;2023-04-21T03:17:37;114431.03;;;-145.32;100.00
14041;BME280;7095;51.388;6.196;2023-04-21T03:20:07;114431.03;;;-145.32;100.00
14041;BME280;7095;51.388;6.196;2023-04-21T03:22:37;114172.03;;;-145.32;100.00
14041;BME280;7095;51.388;6.196;2023-04-21T03:25:06;114172.03;;;-145.32;100.00
14041;BME280;7095;51.388;6.196;2023-04-21T03:27:35;114172.03;;;-145.32;100.00
14041;BME280;7095;51.388;6.196;2023-04-21T03:30:04;113913.03;;;-145.32;100.00
14041;BME280;7095;51.388;6.196;2023-04-21T03:32:32;113913.03;;;-145.32;100.00
14041;BME280;7095;51.388;6.196;2023-04-21T03:35:04;113654.06;;;-145.32;100.00
14041;BME280;7095;51.388;6.196;2023-04-21T03:37:33;113654.06;;;-145.32;100.00
14041;BME280;7095;51.388;6.196;2023-04-21T03:40:01;113913.03;;;-145.32;100.00
14041;BME280;7095;51.388;6.196;2023-04-21T03:42:32;113654.06;;;-145.32;100.00
14041;BME280;7095;51.388;6.196;2023-04-21T03:45:01;113395.13;;;-145.32;100.00
14041;BME280;7095;51.388;6.196;2023-04-21T03:47:32;113136.22;;;-145.32;100.00
14041;BME280;7095;51.388;6.196;2023-04-21T03:50:03;112877.31;;;-145.32;100.00
14041;BME280;7095;51.388;6.196;2023-04-21T03:52:32;112618.41;;;-145.32;100.00
14041;BME280;7095;51.388;6.196;2023-04-21T03:55:02;112877.31;;;-145.32;100.00
14041;BME280;7095;51.388;6.196;2023-04-21T03:57:35;112359.53;;;-145.32;100.00
14041;BME280;7095;51.388;6.196;2023-04-21T04:00:04;112100.69;;;-145.32;100.00
14041;BME280;7095;51.388;6.196;2023-04-21T04:02:39;112100.69;;;-145.32;100.00
14041;BME280;7095;51.388;6.196;2023-04-21T04:05:09;112618.41;;;-145.32;100.00
14041;BME280;7095;51.388;6.196;2023-04-21T04:07:37;113136.22;;;-145.32;100.00
14041;BME280;7095;51.388;6.196;2023-04-21T04:10:06;112359.53;;;-145.32;100.00
14041;BME280;7095;51.388;6.196;2023-04-21T04:12:34;112100.69;;;-145.32;100.00
14041;BME280;7095;51.388;6.196;2023-04-21T04:15:03;112100.69;;;-145.32;100.00
14041;BME280;7095;51.388;6.196;2023-04-21T04:17:32;112359.53;;;-145.32;100.00
14041;BME280;7095;51.388;6.196;2023-04-21T04:20:00;112877.31;;;-145.32;100.00
14041;BME280;7095;51.388;6.196;2023-04-21T04:22:31;112618.41;;;-145.32;100.00
14041;BME280;7095;51.388;6.196;2023-04-21T04:25:00;112618.41;;;-145.32;100.00
14041;BME280;7095;51.388;6.196;2023-04-21T04:27:29;112618.41;;;-145.32;100.00
14041;BME280;7095;51.388;6.196;2023-04-21T04:29:58;113136.22;;;-145.32;100.00
14041;BME280;7095;51.388;6.196;2023-04-21T04:32:26;112877.31;;;-145.32;100.00
14041;BME280;7095;51.388;6.196;2023-04-21T04:34:55;112618.41;;;-145.32;100.00
14041;BME280;7095;51.388;6.196;2023-04-21T04:37:25;112359.53;;;-145.32;100.00
14041;BME280;7095;51.388;6.196;2023-04-21T04:39:55;112877.31;;;-145.32;100.00
14041;BME280;7095;51.388;6.196;2023-04-21T04:42:23;112618.41;;;-145.32;100.00
14041;BME280;7095;51.388;6.196;2023-04-21T04:44:52;112618.41;;;-145.32;100.00
14041;BME280;7095;51.388;6.196;2023-04-21T04:47:20;113136.22;;;-145.32;100.00
14041;BME280;7095;51.388;6.196;2023-04-21T04:49:49;113136.22;;;-145.32;100.00
14041;BME280;7095;51.388;6.196;2023-04-21T04:52:17;113395.13;;;-145.32;100.00
14041;BME280;7095;51.388;6.196;2023-04-21T04:54:45;113395.13;;;-145.32;100.00
14041;BME280;7095;51.388;6.196;2023-04-21T04:57:15;113395.13;;;-145.32;100.00
14041;BME280;7095;51.388;6.196;2023-04-21T04:59:44;113136.22;;;-145.32;100.00
14041;BME280;7095;51.388;6.196;2023-04-21T05:02:12;112877.31;;;-145.32;100.00
14041;BME280;7095;51.388;6.196;2023-04-21T05:04:41;113136.22;;;-145.32;100.00
14041;BME280;7095;51.388;6.196;2023-04-21T05:07:09;113395.13;;;-145.32;100.00
14041;BME280;7095;51.388;6.196;2023-04-21T05:09:38;113395.13;;;-145.32;100.00
14041;BME280;7095;51.388;6.196;2023-04-21T05:12:06;113136.22;;;-145.32;100.00
14041;BME280;7095;51.388;6.196;2023-04-21T05:14:36;112877.31;;;-145.32;100.00
14041;BME280;7095;51.388;6.196;2023-04-21T05:17:04;113913.03;;;-145.32;100.00
14041;BME280;7095;51.388;6.196;2023-04-21T05:19:34;113913.03;;;-145.32;100.00
14041;BME280;7095;51.388;6.196;2023-04-21T05:22:02;113654.06;;;-145.32;100.00
14041;BME280;7095;51.388;6.196;2023-04-21T05:24:32;114172.03;;;-145.32;100.00
14041;BME280;7095;51.388;6.196;2023-04-21T05:27:00;114431.03;;;-145.32;100.00
14041;BME280;7095;51.388;6.196;2023-04-21T05:29:29;114690.03;;;-145.32;100.00
14041;BME280;7095;51.388;6.196;2023-04-21T05:32:01;114949.09;;;-145.32;100.00
14041;BME280;7095;51.388;6.196;2023-04-21T05:34:31;114949.09;;;-145.32;100.00
14041;BME280;7095;51.388;6.196;2023-04-21T05:36:59;114949.09;;;-145.32;100.00
14041;BME280;7095;51.388;6.196;2023-04-21T05:39:28;114949.09;;;-145.32;100.00
14041;BME280;7095;51.388;6.196;2023-04-21T05:41:59;115208.13;;;-145.32;100.00
14041;BME280;7095;51.388;6.196;2023-04-21T05:44:28;115208.13;;;-145.32;100.00
14041;BME280;7095;51.388;6.196;2023-04-21T05:46:56;115208.13;;;-145.32;100.00
14041;BME280;7095;51.388;6.196;2023-04-21T05:49:26;115208.13;;;-145.32;100.00
14041;BME280;7095;51.388;6.196;2023-04-21T05:51:54;115208.13;;;-145.32;100.00
14041;BME280;7095;51.388;6.196;2023-04-21T05:54:23;115208.13;;;-145.32;100.00
14041;BME280;7095;51.388;6.196;2023-04-21T05:56:51;115208.13;;;-145.32;100.00
14041;BME280;7095;51.388;6.196;2023-04-21T05:59:20;115208.13;;;-145.32;100.00
14041;BME280;7095;51.388;6.196;2023-04-21T06:01:51;115208.13;;;-145.32;100.00
14041;BME280;7095;51.388;6.196;2023-04-21T06:04:19;114949.09;;;-145.32;100.00
14041;BME280;7095;51.388;6.196;2023-04-21T06:06:50;115208.13;;;-145.32;100.00
14041;BME280;7095;51.388;6.196;2023-04-21T06:09:18;115208.13;;;-145.32;100.00
14041;BME280;7095;51.388;6.196;2023-04-21T06:11:47;115467.22;;;-145.32;100.00
14041;BME280;7095;51.388;6.196;2023-04-21T06:14:16;115208.13;;;-145.32;100.00
14041;BME280;7095;51.388;6.196;2023-04-21T06:16:45;115208.13;;;-145.32;100.00
14041;BME280;7095;51.388;6.196;2023-04-21T06:19:13;114949.09;;;-145.32;100.00
14041;BME280;7095;51.388;6.196;2023-04-21T06:21:42;114949.09;;;-145.32;100.00
14041;BME280;7095;51.388;6.196;2023-04-21T06:24:14;114949.09;;;-145.32;100.00
14041;BME280;7095;51.388;6.196;2023-04-21T06:26:43;114949.09;;;-145.32;100.00
14041;BME280;7095;51.388;6.196;2023-04-21T06:29:11;115208.13;;;-145.32;100.00
14041;BME280;7095;51.388;6.196;2023-04-21T06:31:39;115208.13;;;-145.32;100.00
14041;BME280;7095;51.388;6.196;2023-04-21T06:34:11;115208.13;;;-145.32;100.00
14041;BME280;7095;51.388;6.196;2023-04-21T06:36:39;114949.09;;;-145.32;100.00
14041;BME280;7095;51.388;6.196;2023-04-21T06:39:07;114949.09;;;-145.32;100.00
14041;BME280;7095;51.388;6.196;2023-04-21T06:41:37;115208.13;;;-145.32;100.00
14041;BME280;7095;51.388;6.196;2023-04-21T06:44:06;115208.13;;;-145.32;100.00
14041;BME280;7095;51.388;6.196;2023-04-21T06:46:34;114949.09;;;-145.32;100.00
14041;BME280;7095;51.388;6.196;2023-04-21T06:49:02;114949.09;;;-145.32;100.00
14041;BME280;7095;51.388;6.196;2023-04-21T06:51:31;114949.09;;;-145.32;100.00
14041;BME280;7095;51.388;6.196;2023-04-21T06:53:59;114949.09;;;-145.32;100.00
14041;BME280;7095;51.388;6.196;2023-04-21T06:56:28;114949.09;;;-145.32;100.00
14041;BME280;7095;51.388;6.196;2023-04-21T06:58:58;114690.03;;;-145.32;100.00
14041;BME280;7095;51.388;6.196;2023-04-21T07:01:29;114690.03;;;-145.32;100.00
14041;BME280;7095;51.388;6.196;2023-04-21T07:03:58;114949.09;;;-145.32;100.00
14041;BME280;7095;51.388;6.196;2023-04-21T07:06:29;114949.09;;;-145.32;100.00
14041;BME280;7095;51.388;6.196;2023-04-21T07:09:01;115208.13;;;-145.32;100.00
14041;BME280;7095;51.388;6.196;2023-04-21T07:11:29;114949.09;;;-145.32;100.00
14041;BME280;7095;51.388;6.196;2023-04-21T07:13:59;114172.03;;;-145.32;100.00
14041;BME280;7095;51.388;6.196;2023-04-21T07:16:28;113654.06;;;-145.32;100.00
14041;BME280;7095;51.388;6.196;2023-04-21T07:18:57;113654.06;;;-145.32;100.00
14041;BME280;7095;51.388;6.196;2023-04-21T07:21:26;113913.03;;;-145.32;100.00
14041;BME280;7095;51.388;6.196;2023-04-21T07:23:56;113654.06;;;-145.32;100.00
14041;BME280;7095;51.388;6.196;2023-04-21T07:26:24;113913.03;;;-145.32;100.00
14041;BME280;7095;51.388;6.196;2023-04-21T07:28:53;113913.03;;;-145.32;100.00
14041;BME280;7095;51.388;6.196;2023-04-21T07:31:25;114172.03;;;-145.32;100.00
14041;BME280;7095;51.388;6.196;2023-04-21T07:33:54;112877.31;;;-145.32;100.00
14041;BME280;7095;51.388;6.196;2023-04-21T07:36:22;113136.22;;;-145.32;100.00
14041;BME280;7095;51.388;6.196;2023-04-21T07:38:52;113654.06;;;-145.32;100.00
14041;BME280;7095;51.388;6.196;2023-04-21T07:41:20;112359.53;;;-145.32;100.00
14041;BME280;7095;51.388;6.196;2023-04-21T07:43:48;112359.53;;;-145.32;100.00
14041;BME280;7095;51.388;6.196;2023-04-21T07:46:19;110806.75;;;-145.32;100.00
14041;BME280;7095;51.388;6.196;2023-04-21T07:48:54;111065.50;;;-145.32;100.00
14041;BME280;7095;51.388;6.196;2023-04-21T07:51:22;111324.28;;;-145.32;100.00
14041;BME280;7095;51.388;6.196;2023-04-21T07:53:54;111583.06;;;-145.32;100.00
14041;BME280;7095;51.388;6.196;2023-04-21T07:56:22;111324.28;;;-145.32;100.00
14041;BME280;7095;51.388;6.196;2023-04-21T07:58:51;110548.00;;;-145.32;100.00
14041;BME280;7095;51.388;6.196;2023-04-21T08:01:19;110289.28;;;-145.32;100.00
14041;BME280;7095;51.388;6.196;2023-04-21T08:03:49;109513.28;;;-145.32;100.00
14041;BME280;7095;51.388;6.196;2023-04-21T08:06:19;109254.63;;;-145.32;100.00
14041;BME280;7095;51.388;6.196;2023-04-21T08:08:48;108996.00;;;-145.32;100.00
14041;BME280;7095;51.388;6.196;2023-04-21T08:11:19;109771.94;;;-145.32;100.00
14041;BME280;7095;51.388;6.196;2023-04-21T08:13:48;107444.69;;;-145.32;100.00
14041;BME280;7095;51.388;6.196;2023-04-21T08:16:17;108478.84;;;-145.32;100.00
14041;BME280;7095;51.388;6.196;2023-04-21T08:18:46;108996.00;;;-145.32;100.00
14041;BME280;7095;51.388;6.196;2023-04-21T08:21:17;108996.00;;;-145.32;100.00
14041;BME280;7095;51.388;6.196;2023-04-21T08:23:47;109771.94;;;-145.32;100.00
14041;BME280;7095;51.388;6.196;2023-04-21T08:26:16;108737.41;;;-145.32;100.00
14041;BME280;7095;51.388;6.196;2023-04-21T08:28:47;109254.63;;;-145.32;100.00
14041;BME280;7095;51.388;6.196;2023-04-21T08:31:18;108220.28;;;-145.32;100.00
14041;BME280;7095;51.388;6.196;2023-04-21T08:33:47;108478.84;;;-145.32;100.00
14041;BME280;7095;51.388;6.196;2023-04-21T08:36:28;107444.69;;;-145.32;100.00
14041;BME280;7095;51.388;6.196;2023-04-21T08:39:00;106927.75;;;-145.32;100.00
14041;BME280;7095;51.388;6.196;2023-04-21T08:41:29;103827.66;;;-145.32;100.00
14041;BME280;7095;51.388;6.196;2023-04-21T08:43:57;103827.66;;;-145.32;100.00
14041;BME280;7095;51.388;6.196;2023-04-21T08:46:26;102794.91;;;-145.32;100.00
14041;BME280;7095;51.388;6.196;2023-04-21T08:48:57;102020.53;;;-145.32;100.00
14041;BME280;7095;51.388;6.196;2023-04-21T08:51:27;104602.44;;;-145.32;100.00
14041;BME280;7095;51.388;6.196;2023-04-21T08:53:56;107186.22;;;-145.32;100.00
14041;BME280;7095;51.388;6.196;2023-04-21T08:56:26;105635.72;;;-145.32;100.00
14041;BME280;7095;51.388;6.196;2023-04-21T08:58:55;102794.91;;;-145.32;100.00
14041;BME280;7095;51.388;6.196;2023-04-21T09:01:23;102020.53;;;-145.32;100.00
14041;BME280;7095;51.388;6.196;2023-04-21T09:03:52;102536.75;;;-145.32;100.00
14041;BME280;7095;51.388;6.196;2023-04-21T09:06:21;102536.75;;;-145.32;100.00
14041;BME280;7095;51.388;6.196;2023-04-21T09:08:53;99440.56;;;-145.32;100.00
14041;BME280;7095;51.388;6.196;2023-04-21T09:11:22;97893.50;;;-145.32;100.00
14041;BME280;7095;51.388;6.196;2023-04-21T09:13:55;99698.47;;;-145.32;100.00
14041;BME280;7095;51.388;6.196;2023-04-21T09:16:31;99956.41;;;-145.32;100.00
14041;BME280;7095;51.388;6.196;2023-04-21T09:19:00;100988.31;;;-145.32;100.00
14041;BME280;7095;51.388;6.196;2023-04-21T09:21:28;100988.31;;;-145.32;100.00
14041;BME280;7095;51.388;6.196;2023-04-21T09:24:03;98666.94;;;-145.32;100.00
14041;BME280;7095;51.388;6.196;2023-04-21T09:26:33;92226.81;;;-145.32;100.00
14041;BME280;7095;51.388;6.196;2023-04-21T09:29:07;96089.47;;;-145.32;100.00
14041;BME280;7095;51.388;6.196;2023-04-21T09:31:36;96862.50;;;-145.32;100.00
14041;BME280;7095;51.388;6.196;2023-04-21T09:34:17;91712.13;;;-145.32;100.00
14041;BME280;7095;51.388;6.196;2023-04-21T09:36:47;90940.22;;;-145.32;100.00
14041;BME280;7095;51.388;6.196;2023-04-21T09:39:15;92741.59;;;-145.32;100.00
14041;BME280;7095;51.388;6.196;2023-04-21T09:42:04;87340.31;;;-145.32;100.00
14041;BME280;7095;51.388;6.196;2023-04-21T09:44:34;78869.66;;;-145.32;100.00
14041;BME280;7095;51.388;6.196;2023-04-21T09:47:19;81947.50;;;-145.32;100.00
14041;BME280;7095;51.388;6.196;2023-04-21T09:49:50;78100.63;;;-145.32;100.00
14041;BME280;7095;51.388;6.196;2023-04-21T09:52:19;73746.06;;;-145.32;100.00
14041;BME280;7095;51.388;6.196;2023-04-21T09:54:50;74770.16;;;-145.32;100.00
14041;BME280;7095;51.388;6.196;2023-04-21T09:57:20;71698.75;;;-145.32;100.00
14041;BME280;7095;51.388;6.196;2023-04-21T09:59:59;69678.66;;;-145.32;100.00
14041;BME280;7095;51.388;6.196;2023-04-21T10:02:34;66212.69;;;-145.32;100.00
14041;BME280;7095;51.388;6.196;2023-04-21T10:05:04;63186.81;;;-145.32;100.00
14041;BME280;7095;51.388;6.196;2023-04-21T10:07:34;62724.31;;;-145.32;100.00
14041;BME280;7095;51.388;6.196;2023-04-21T10:10:05;64046.25;;;-145.32;100.00
14041;BME280;7095;51.388;6.196;2023-04-21T10:12:34;59719.47;;;-145.32;100.00
14041;BME280;7095;51.388;6.196;2023-04-21T10:15:05;60175.63;;;-145.32;100.00
14041;BME280;7095;51.388;6.196;2023-04-21T10:18:10;58604.31;;;-145.32;100.00
14041;BME280;7095;51.388;6.196;2023-04-21T10:20:54;58154.38;;;-145.32;100.00
14041;BME280;7095;51.388;6.196;2023-04-21T10:23:27;58325.56;;;-145.32;100.00
14041;BME280;7095;51.388;6.196;2023-04-21T10:26:08;58859.19;;;-145.32;100.00
14041;BME280;7095;51.388;6.196;2023-04-21T10:28:46;57131.25;;;-145.32;100.00
14041;BME280;7095;51.388;6.196;2023-04-21T10:31:29;57173.03;;;-145.32;100.00
14041;BME280;7095;51.388;6.196;2023-04-21T10:34:17;56203.94;;;-145.32;100.00
14041;BME280;7095;51.388;6.196;2023-04-21T10:37:13;56269.59;;;-145.32;100.00
14041;BME280;7095;51.388;6.196;2023-04-21T10:39:54;56639.72;;;-145.32;100.00
14041;BME280;7095;51.388;6.196;2023-04-21T10:42:27;56201.97;;;-145.32;100.00
14041;BME280;7095;51.388;6.196;2023-04-21T10:45:10;55621.03;;;-145.32;100.00
14041;BME280;7095;51.388;6.196;2023-04-21T10:47:47;55495.69;;;-145.32;100.00
14041;BME280;7095;51.388;6.196;2023-04-21T10:50:21;55629.00;;;-145.32;100.00
14041;BME280;7095;51.388;6.196;2023-04-21T10:52:55;55336.56;;;-145.32;100.00
14041;BME280;7095;51.388;6.196;2023-04-21T10:55:28;55350.50;;;-145.32;100.00
14041;BME280;7095;51.388;6.196;2023-04-21T10:58:00;55089.94;;;-145.32;100.00
14041;BME280;7095;51.388;6.196;2023-04-21T11:00:31;54813.47;;;-145.32;100.00
14041;BME280;7095;51.388;6.196;2023-04-21T11:03:02;54767.72;;;-145.32;100.00
14041;BME280;7095;51.388;6.196;2023-04-21T11:05:35;54698.13;;;-145.32;100.00
14041;BME280;7095;51.388;6.196;2023-04-21T11:08:09;54737.88;;;-145.32;100.00
14041;BME280;7095;51.388;6.196;2023-04-21T11:10:48;54632.50;;;-145.32;100.00
14041;BME280;7095;51.388;6.196;2023-04-21T11:13:20;54566.84;;;-145.32;100.00
14041;BME280;7095;51.388;6.196;2023-04-21T11:16:05;54511.19;;;-145.32;100.00
14041;BME280;7095;51.388;6.196;2023-04-21T11:18:39;54441.56;;;-145.32;100.00
14041;BME280;7095;51.388;6.196;2023-04-21T11:21:10;54377.94;;;-145.32;100.00
14041;BME280;7095;51.388;6.196;2023-04-21T11:23:39;54306.34;;;-145.32;100.00
14041;BME280;7095;51.388;6.196;2023-04-21T11:26:09;54369.97;;;-145.32;100.00
14041;BME280;7095;51.388;6.196;2023-04-21T11:28:39;54262.59;;;-145.32;100.00
14041;BME280;7095;51.388;6.196;2023-04-21T11:31:07;54286.47;;;-145.32;100.00
14041;BME280;7095;51.388;6.196;2023-04-21T11:33:38;54298.41;;;-145.32;100.00
14041;BME280;7095;51.388;6.196;2023-04-21T11:36:07;54177.09;;;-145.32;100.00
14041;BME280;7095;51.388;6.196;2023-04-21T11:38:37;54153.25;;;-145.32;100.00
14041;BME280;7095;51.388;6.196;2023-04-21T11:41:06;54127.38;;;-145.32;100.00
14041;BME280;7095;51.388;6.196;2023-04-21T11:43:37;54147.28;;;-145.32;100.00
14041;BME280;7095;51.388;6.196;2023-04-21T11:46:22;54111.47;;;-145.32;100.00
14041;BME280;7095;51.388;6.196;2023-04-21T11:48:59;54061.78;;;-145.32;100.00
14041;BME280;7095;51.388;6.196;2023-04-21T11:51:32;54041.88;;;-145.32;100.00
14041;BME280;7095;51.388;6.196;2023-04-21T11:54:01;53942.47;;;-145.32;100.00
14041;BME280;7095;51.388;6.196;2023-04-21T11:56:29;53902.69;;;-145.32;100.00
14041;BME280;7095;51.388;6.196;2023-04-21T11:59:05;53944.47;;;-145.32;100.00
14041;BME280;7095;51.388;6.196;2023-04-21T12:01:41;53892.75;;;-145.32;100.00
14041;BME280;7095;51.388;6.196;2023-04-21T12:04:14;53825.16;;;-145.32;100.00
14041;BME280;7095;51.388;6.196;2023-04-21T12:06:44;53872.88;;;-145.32;100.00
14041;BME280;7095;51.388;6.196;2023-04-21T12:09:17;53878.84;;;-145.32;100.00
14041;BME280;7095;51.388;6.196;2023-04-21T12:11:48;53884.81;;;-145.32;100.00
14041;BME280;7095;51.388;6.196;2023-04-21T12:14:17;53870.88;;;-145.32;100.00
14041;BME280;7095;51.388;6.196;2023-04-21T12:16:47;53777.44;;;-145.32;100.00
14041;BME280;7095;51.388;6.196;2023-04-21T12:19:34;53765.50;;;-145.32;100.00
14041;BME280;7095;51.388;6.196;2023-04-21T12:22:06;53723.75;;;-145.32;100.00
14041;BME280;7095;51.388;6.196;2023-04-21T12:24:36;53707.84;;;-145.32;100.00
14041;BME280;7095;51.388;6.196;2023-04-21T12:27:05;53775.47;;;-145.32;100.00
14041;BME280;7095;51.388;6.196;2023-04-21T12:29:34;53783.41;;;-145.32;100.00
14041;BME280;7095;51.388;6.196;2023-04-21T12:32:04;53713.81;;;-145.32;100.00
14041;BME280;7095;51.388;6.196;2023-04-21T12:34:34;53721.78;;;-145.32;100.00
14041;BME280;7095;51.388;6.196;2023-04-21T12:37:03;53697.91;;;-145.32;100.00
14041;BME280;7095;51.388;6.196;2023-04-21T12:39:32;53670.09;;;-145.32;100.00
14041;BME280;7095;51.388;6.196;2023-04-21T12:42:01;53640.25;;;-145.32;100.00
14041;BME280;7095;51.388;6.196;2023-04-21T12:44:30;53678.03;;;-145.32;100.00
14041;BME280;7095;51.388;6.196;2023-04-21T12:46:58;53642.25;;;-145.32;100.00
14041;BME280;7095;51.388;6.196;2023-04-21T12:49:27;53666.09;;;-145.32;100.00